West Bloomfield, New York
Current Conditions -  °F | °C
As of 10:54 AM on Friday 31 Oct 2014 (Local Time) from KROC Reporting Station
Overcast Overcast  
Wind Chill: 44°   Ceiling: 4000
Heat Index: 47°   Visibility: 10mi
Dew Point: 39°   Wind: 6mph
Humidity: 74%   Direction: 170°S
Pressure: 29.97"   Gusts: NA
Location:  42.91°N, 77.54°W
Report Text: KROC 311454Z 17005KT 10SM OVC040 08/04 A2997 RMK AO2 RAE21 SLP156 P0000 60000 T00830039 58003
Loading
Personal Weather Stations






























Interactive Weather Map
Tropical Storm Tracking
New forecast layout! Learn more

10-Day Weather Forecast

Advertisements
Track Severe Weather on mobile